createdAt,value
2019-03-17T00:04:56.857Z,2.60
2019-03-17T00:09:59.571Z,2.70
2019-03-17T00:15:05.516Z,2.20
2019-03-17T00:20:07.014Z,2.00
2019-03-17T00:25:10.320Z,2.50
2019-03-17T00:30:13.301Z,1.80
2019-03-17T00:35:16.012Z,2.10
2019-03-17T00:40:18.722Z,2.63
2019-03-17T00:45:21.415Z,2.33
2019-03-17T00:50:24.135Z,2.80
2019-03-17T00:55:26.839Z,2.07
2019-03-17T01:00:30.550Z,2.20
2019-03-17T01:05:33.242Z,2.20
2019-03-17T01:10:35.941Z,2.40
2019-03-17T01:15:38.644Z,2.83
2019-03-17T01:20:41.348Z,2.27
2019-03-17T01:25:44.058Z,2.73
2019-03-17T01:30:46.771Z,2.43
2019-03-17T01:35:49.498Z,2.43
2019-03-17T01:40:52.222Z,2.17
2019-03-17T01:45:54.915Z,2.50
2019-03-17T01:50:57.622Z,2.27
2019-03-17T01:56:00.346Z,1.70
2019-03-17T02:01:03.177Z,2.43
2019-03-17T02:06:05.862Z,2.20
2019-03-17T02:11:08.566Z,1.70
2019-03-17T02:16:11.286Z,2.00
2019-03-17T02:21:13.980Z,1.80
2019-03-17T02:26:16.679Z,2.10
2019-03-17T02:31:19.459Z,2.30
2019-03-17T02:36:22.195Z,2.00
2019-03-17T02:41:24.887Z,2.43
2019-03-17T02:46:27.610Z,2.13
2019-03-17T02:51:30.302Z,2.13
2019-03-17T02:56:32.995Z,1.97
2019-03-17T03:01:35.710Z,1.80
2019-03-17T03:06:38.430Z,2.27
2019-03-17T03:11:41.118Z,1.60
2019-03-17T03:16:43.822Z,2.27
2019-03-17T03:21:46.520Z,1.93
2019-03-17T03:26:49.329Z,2.10
2019-03-17T03:31:52.048Z,2.10
2019-03-17T03:36:54.830Z,2.17
2019-03-17T03:41:57.529Z,2.23
2019-03-17T03:47:00.225Z,2.30
2019-03-17T03:52:02.919Z,2.37
2019-03-17T03:57:05.610Z,2.17
2019-03-17T04:02:08.322Z,2.20
2019-03-17T04:07:11.292Z,1.90
2019-03-17T04:12:14.247Z,1.53
2019-03-17T04:17:17.321Z,2.50
2019-03-17T04:22:20.349Z,1.90
2019-03-17T04:27:23.307Z,1.80
2019-03-17T04:32:26.357Z,2.10
2019-03-17T04:37:29.389Z,2.10
2019-03-17T04:42:32.239Z,2.30
2019-03-17T04:47:35.196Z,2.17
2019-03-17T04:52:38.195Z,2.30
2019-03-17T04:57:41.254Z,3.20
2019-03-17T05:02:44.186Z,2.63
2019-03-17T05:07:46.860Z,2.50
2019-03-17T05:12:49.566Z,2.60
2019-03-17T05:17:52.281Z,2.83
2019-03-17T05:22:54.984Z,2.60
2019-03-17T05:27:57.983Z,2.57
2019-03-17T05:33:00.728Z,3.20
2019-03-17T05:38:03.417Z,2.47
2019-03-17T05:43:06.120Z,2.97
2019-03-17T05:48:08.826Z,3.20
2019-03-17T05:53:11.522Z,3.40
2019-03-17T05:58:14.222Z,3.00
2019-03-17T06:03:16.943Z,3.20
2019-03-17T06:08:21.281Z,3.03
2019-03-17T06:13:24.042Z,2.80
2019-03-17T06:18:26.725Z,2.73
2019-03-17T06:23:29.465Z,3.10
2019-03-17T06:28:32.160Z,3.33
2019-03-17T06:33:34.844Z,3.33
2019-03-17T06:38:37.973Z,4.03
2019-03-17T06:43:40.908Z,3.47
2019-03-17T06:48:43.658Z,3.43
2019-03-17T06:53:55.804Z,3.33
2019-03-17T06:58:51.001Z,3.17
2019-03-17T07:03:53.692Z,2.97
2019-03-17T07:08:56.430Z,3.20
2019-03-17T07:13:59.229Z,3.37
2019-03-17T07:19:01.925Z,3.43
2019-03-17T07:24:04.646Z,2.57
2019-03-17T07:29:07.549Z,2.77
2019-03-17T07:34:11.050Z,2.93
2019-03-17T07:39:13.884Z,2.63
2019-03-17T07:44:16.670Z,4.23
2019-03-17T07:49:20.240Z,3.70
2019-03-17T07:54:29.232Z,2.80
2019-03-17T07:59:42.417Z,2.97
2019-03-17T08:04:49.902Z,3.13
2019-03-17T08:09:56.497Z,1.00
2019-03-17T08:15:01.395Z,0.57
2019-03-17T08:20:07.490Z,0.60
2019-03-17T08:25:12.021Z,0.50
2019-03-17T08:30:16.331Z,0.50
2019-03-17T08:35:20.472Z,0.60
2019-03-17T08:40:24.202Z,0.50
2019-03-17T08:45:28.695Z,0.50
2019-03-17T08:50:31.581Z,0.93
2019-03-17T08:55:34.351Z,0.50
2019-03-17T09:00:37.609Z,0.70
2019-03-17T09:05:40.390Z,0.77
2019-03-17T09:10:43.173Z,0.70
2019-03-17T09:15:45.898Z,0.67
2019-03-17T09:20:48.595Z,0.60
2019-03-17T09:25:51.375Z,0.60
2019-03-17T09:30:54.082Z,0.53
2019-03-17T09:35:56.788Z,0.50
2019-03-17T09:40:59.488Z,0.60
2019-03-17T09:46:02.213Z,0.60
2019-03-17T09:51:04.898Z,0.70
2019-03-17T09:56:07.589Z,0.60
2019-03-17T10:01:10.294Z,0.60
2019-03-17T10:06:13.045Z,0.70
2019-03-17T10:11:15.795Z,0.60
2019-03-17T10:16:18.494Z,0.80
2019-03-17T10:21:21.186Z,0.70
2019-03-17T10:26:23.876Z,0.80
2019-03-17T10:31:26.583Z,0.70
2019-03-17T10:36:29.496Z,0.90
2019-03-17T10:41:32.311Z,0.80
2019-03-17T10:46:35.040Z,1.00
2019-03-17T10:51:37.855Z,0.90
2019-03-17T10:56:40.648Z,0.97
2019-03-17T11:01:43.344Z,0.90
2019-03-17T11:06:46.055Z,0.90
2019-03-17T11:11:48.753Z,0.90
2019-03-17T11:16:51.522Z,1.00
2019-03-17T11:21:54.214Z,1.00
2019-03-17T11:26:56.911Z,1.40
2019-03-17T11:31:59.617Z,1.00
2019-03-17T11:37:02.325Z,1.00
2019-03-17T11:42:05.095Z,0.90
2019-03-17T11:47:07.998Z,1.43
2019-03-17T11:52:10.730Z,1.33
2019-03-17T11:57:13.466Z,1.10
2019-03-17T12:02:26.108Z,0.60
2019-03-17T12:07:20.774Z,0.60
2019-03-17T12:12:23.533Z,0.60
2019-03-17T12:17:26.345Z,0.53
2019-03-17T12:22:29.063Z,0.60
2019-03-17T12:27:31.778Z,0.70
2019-03-17T12:32:34.502Z,0.70
2019-03-17T12:37:37.274Z,1.00
2019-03-17T12:42:40.017Z,0.90
2019-03-17T12:47:43.869Z,0.90
2019-03-17T12:52:46.637Z,1.20
2019-03-17T12:57:49.375Z,1.10
2019-03-17T13:02:52.076Z,1.00
2019-03-17T13:07:55.067Z,1.00
2019-03-17T13:12:57.784Z,0.90
2019-03-17T13:18:00.493Z,0.80
2019-03-17T13:23:03.201Z,0.83
2019-03-17T13:28:06.028Z,0.80
2019-03-17T13:33:08.718Z,0.70
2019-03-17T13:38:11.528Z,0.50
2019-03-17T13:43:14.256Z,0.40
2019-03-17T13:48:16.960Z,0.47
2019-03-17T13:53:19.656Z,0.40
2019-03-17T13:58:22.354Z,0.50
2019-03-17T14:03:25.069Z,0.60
2019-03-17T14:08:27.773Z,0.60
2019-03-17T14:13:30.467Z,0.50
2019-03-17T14:18:33.168Z,0.60
2019-03-17T14:23:35.874Z,0.90
2019-03-17T14:28:38.570Z,0.80
2019-03-17T14:33:41.259Z,0.60
2019-03-17T14:38:43.966Z,0.50
2019-03-17T14:43:46.654Z,0.60
2019-03-17T14:48:49.361Z,0.60
2019-03-17T14:53:52.063Z,0.60
2019-03-17T14:58:54.756Z,0.70
2019-03-17T15:03:57.448Z,0.60
2019-03-17T15:09:00.154Z,0.80
2019-03-17T15:14:03.010Z,0.73
2019-03-17T15:19:05.722Z,0.63
2019-03-17T15:24:08.397Z,0.80
2019-03-17T15:29:11.087Z,1.07
2019-03-17T15:34:13.768Z,0.90
2019-03-17T15:39:16.497Z,1.00
2019-03-17T15:44:19.207Z,0.63
2019-03-17T15:49:21.897Z,0.73
2019-03-17T15:54:24.584Z,1.00
2019-03-17T15:59:27.290Z,0.70
2019-03-17T16:04:30.007Z,0.90
2019-03-17T16:09:32.686Z,0.90
2019-03-17T16:14:35.396Z,1.00
2019-03-17T16:19:38.101Z,1.20
2019-03-17T16:24:40.827Z,0.90
2019-03-17T16:29:43.521Z,0.80
2019-03-17T16:34:46.224Z,0.80
2019-03-17T16:39:48.944Z,0.97
2019-03-17T16:44:51.646Z,0.87
2019-03-17T16:49:54.352Z,0.83
2019-03-17T16:54:57.056Z,0.80
2019-03-17T16:59:59.782Z,0.80
2019-03-17T17:05:02.546Z,0.80
2019-03-17T17:10:06.900Z,0.80
2019-03-17T17:15:19.362Z,0.90
2019-03-17T17:20:24.536Z,0.80
2019-03-17T17:25:27.239Z,0.70
2019-03-17T17:30:29.939Z,0.80
2019-03-17T17:35:32.635Z,1.10
2019-03-17T17:40:35.337Z,1.07
2019-03-17T17:45:38.038Z,0.90
2019-03-17T17:50:40.721Z,1.23
2019-03-17T17:55:43.425Z,1.30
2019-03-17T18:00:46.615Z,0.90
2019-03-17T18:05:49.309Z,1.00
2019-03-17T18:10:52.034Z,0.90
2019-03-17T18:15:54.744Z,1.30
2019-03-17T18:20:57.435Z,1.43
2019-03-17T18:26:00.138Z,1.13
2019-03-17T18:31:02.936Z,1.27
2019-03-17T18:36:05.694Z,1.00
2019-03-17T18:41:08.456Z,1.70
2019-03-17T18:46:11.151Z,0.93
2019-03-17T18:51:13.848Z,1.20
2019-03-17T18:56:16.586Z,1.23
2019-03-17T19:01:19.290Z,1.30
2019-03-17T19:06:21.995Z,1.30
2019-03-17T19:11:24.685Z,1.00
2019-03-17T19:16:27.372Z,1.10
2019-03-17T19:21:30.070Z,1.10
2019-03-17T19:26:33.185Z,0.90
2019-03-17T19:31:36.182Z,0.77
2019-03-17T19:36:39.142Z,1.20
2019-03-17T19:41:41.841Z,1.00
2019-03-17T19:46:44.541Z,1.00
2019-03-17T19:51:47.242Z,1.43
2019-03-17T19:56:50.053Z,1.10
2019-03-17T20:01:52.821Z,1.13
2019-03-17T20:06:56.347Z,1.30
2019-03-17T20:11:59.056Z,1.60
2019-03-17T20:17:01.754Z,1.10
2019-03-17T20:22:04.664Z,2.53
2019-03-17T20:27:07.334Z,1.40
2019-03-17T20:32:10.016Z,2.10
2019-03-17T20:37:12.711Z,2.70
2019-03-17T20:42:15.413Z,1.60
2019-03-17T20:47:18.115Z,1.13
2019-03-17T20:52:20.806Z,1.50
2019-03-17T20:57:23.511Z,1.40
2019-03-17T21:02:26.208Z,1.53
2019-03-17T21:07:28.908Z,1.33
2019-03-17T21:12:31.600Z,1.30
2019-03-17T21:17:34.295Z,1.23
2019-03-17T21:22:37.015Z,1.00
2019-03-17T21:27:39.736Z,0.87
2019-03-17T21:32:42.472Z,1.23
2019-03-17T21:37:45.218Z,1.10
2019-03-17T21:42:48.009Z,1.00
2019-03-17T21:47:50.725Z,1.30
2019-03-17T21:52:53.427Z,0.87
2019-03-17T21:57:56.221Z,1.00
2019-03-17T22:02:58.924Z,1.10
2019-03-17T22:08:01.638Z,0.97
2019-03-17T22:13:04.337Z,1.00
2019-03-17T22:18:07.037Z,1.27
2019-03-17T22:23:09.719Z,1.17
2019-03-17T22:28:12.416Z,1.30
2019-03-17T22:33:15.103Z,1.77
2019-03-17T22:38:17.808Z,1.40
2019-03-17T22:43:20.494Z,1.57
2019-03-17T22:48:23.223Z,1.33
2019-03-17T22:53:25.922Z,1.23
2019-03-17T22:58:28.649Z,1.10
2019-03-17T23:03:31.338Z,1.30
2019-03-17T23:08:34.038Z,1.17
2019-03-17T23:13:36.725Z,1.50
2019-03-17T23:18:39.422Z,1.40
2019-03-17T23:23:42.112Z,1.53
2019-03-17T23:28:44.808Z,1.80
2019-03-17T23:33:47.481Z,1.40
2019-03-17T23:38:50.181Z,1.67
2019-03-17T23:43:52.901Z,1.90
2019-03-17T23:48:55.640Z,1.80
2019-03-17T23:53:58.374Z,1.60
2019-03-17T23:59:01.085Z,1.83
